Time;durP1;ratioP1;P1;durP2;ratioP2;P2;SDS_P1;SDS_P2;PMS_P1;PMS_P2;Temp;Humidity;BMP_temperature;BMP_pressure;BME280_temperature;BME280_humidity;BME280_pressure;Samples;Min_cycle;Max_cycle;Signal;HPM_P1;HPM_P2
2023/01/10 00:00:12;;;;;;;9.63;5.47;;;10.10;99.90;;;;;;6165759;23;20160;-88
2023/01/10 00:02:40;;;;;;;10.47;5.50;;;10.10;99.90;;;;;;6118704;23;20200;-87
2023/01/10 00:05:08;;;;;;;12.67;5.60;;;10.00;99.90;;;;;;6146741;23;20158;-82
2023/01/10 00:07:35;;;;;;;10.30;5.90;;;10.00;99.90;;;;;;6146298;23;20177;-86
2023/01/10 00:10:02;;;;;;;7.97;6.00;;;10.00;99.90;;;;;;6144815;23;20188;-87
2023/01/10 00:15:19;;;;;;;8.47;5.27;;;10.00;99.90;;;;;;6169955;23;20156;-81
2023/01/10 00:17:47;;;;;;;10.77;5.60;;;10.00;99.90;;;;;;6112581;23;20212;-87
2023/01/10 00:20:14;;;;;;;9.87;5.57;;;10.00;99.90;;;;;;6102183;23;20160;-87
2023/01/10 00:22:43;;;;;;;7.90;5.73;;;10.10;99.90;;;;;;6108659;23;20193;-86
2023/01/10 00:25:11;;;;;;;7.77;5.70;;;10.00;99.90;;;;;;6117371;23;20152;-86
2023/01/10 00:28:26;;;;;;;12.10;6.37;;;10.00;99.90;;;;;;6142751;23;20209;-84
2023/01/10 00:31:00;;;;;;;7.47;5.60;;;10.00;99.90;;;;;;6117933;23;20528;-83
2023/01/10 00:33:32;;;;;;;12.03;6.00;;;10.00;99.90;;;;;;6115377;23;20168;-84
2023/01/10 00:36:09;;;;;;;8.53;6.07;;;10.00;99.90;;;;;;6117922;23;20160;-85
2023/01/10 00:38:35;;;;;;;8.37;6.67;;;10.00;99.90;;;;;;6119048;23;20144;-87
2023/01/10 00:43:55;;;;;;;7.83;5.87;;;10.00;99.90;;;;;;6114527;23;20172;-82
2023/01/10 00:43:58;;;;;;;12.97;7.10;;;10.10;99.90;;;;;;6123268;23;20161;-88
2023/01/10 00:46:27;;;;;;;10.47;6.67;;;10.10;99.90;;;;;;6167730;23;20176;-86
2023/01/10 00:48:54;;;;;;;9.57;6.27;;;10.10;99.90;;;;;;6117771;23;20157;-83
2023/01/10 00:51:25;;;;;;;10.87;6.37;;;10.10;99.90;;;;;;6118235;23;20259;-87
2023/01/10 00:53:52;;;;;;;10.00;6.23;;;10.10;99.90;;;;;;6119795;23;20165;-87
2023/01/10 00:56:20;;;;;;;12.93;6.80;;;10.10;99.90;;;;;;6118088;23;20177;-86
2023/01/10 00:58:48;;;;;;;8.07;6.80;;;10.10;99.90;;;;;;6117953;23;20157;-84
2023/01/10 01:01:16;;;;;;;11.83;7.00;;;10.10;99.90;;;;;;6141871;23;20208;-84
2023/01/10 01:03:44;;;;;;;11.87;6.87;;;10.10;99.90;;;;;;6167126;23;20218;-83
2023/01/10 01:06:15;;;;;;;12.63;7.10;;;10.10;99.90;;;;;;6150243;23;20165;-86
2023/01/10 01:08:42;;;;;;;9.20;6.77;;;10.10;99.90;;;;;;6138056;23;20161;-86
2023/01/10 01:11:17;;;;;;;10.20;7.13;;;10.10;99.90;;;;;;6150272;23;20137;-87
2023/01/10 01:13:45;;;;;;;8.33;6.50;;;10.10;99.90;;;;;;6116581;23;20152;-86
2023/01/10 01:16:11;;;;;;;9.43;7.03;;;10.10;99.90;;;;;;6139315;23;20156;-85
2023/01/10 01:18:41;;;;;;;9.90;6.93;;;10.10;99.90;;;;;;6115643;23;20157;-87
2023/01/10 01:21:08;;;;;;;8.93;6.70;;;10.10;99.90;;;;;;6095265;23;20215;-87
2023/01/10 01:23:35;;;;;;;7.90;6.73;;;10.20;99.90;;;;;;6137930;23;20168;-82
2023/01/10 01:26:05;;;;;;;9.87;7.30;;;10.20;99.90;;;;;;6112535;23;20141;-89
2023/01/10 01:28:34;;;;;;;13.70;7.07;;;10.20;99.90;;;;;;6115915;23;20141;-88
2023/01/10 01:31:10;;;;;;;10.63;7.10;;;10.10;99.90;;;;;;6139703;23;20157;-85
2023/01/10 01:33:38;;;;;;;10.50;7.13;;;10.20;99.90;;;;;;6117032;23;20229;-84
2023/01/10 01:36:11;;;;;;;12.00;7.03;;;10.20;99.90;;;;;;6114666;23;20157;-85
2023/01/10 01:38:40;;;;;;;14.10;7.10;;;10.20;99.90;;;;;;6113802;23;20157;-86
2023/01/10 01:41:55;;;;;;;14.03;7.67;;;10.20;99.90;;;;;;6117847;23;20184;-81
2023/01/10 01:44:13;;;;;;;11.27;7.03;;;10.20;99.90;;;;;;6142126;23;20161;-82
2023/01/10 01:46:48;;;;;;;12.40;7.63;;;10.20;99.90;;;;;;6089922;23;20255;-84
2023/01/10 01:49:23;;;;;;;12.77;7.17;;;10.20;99.90;;;;;;6117176;23;20163;-84
2023/01/10 01:52:03;;;;;;;11.00;7.13;;;10.20;99.90;;;;;;6118533;23;20160;-84
2023/01/10 01:54:33;;;;;;;12.77;7.77;;;10.20;99.90;;;;;;6117628;23;20164;-81
2023/01/10 01:57:13;;;;;;;15.63;7.70;;;10.20;99.90;;;;;;6115806;23;20157;-85
2023/01/10 01:59:47;;;;;;;13.37;7.57;;;10.20;99.90;;;;;;6145197;23;20172;-86
2023/01/10 02:02:45;;;;;;;11.57;7.00;;;10.20;99.90;;;;;;6120411;23;20191;-85
2023/01/10 02:05:23;;;;;;;11.50;7.43;;;10.10;99.90;;;;;;6119244;23;20163;-83
2023/01/10 02:07:56;;;;;;;15.43;7.87;;;10.10;99.90;;;;;;6118949;23;20156;-86
2023/01/10 02:11:07;;;;;;;10.40;6.83;;;10.10;99.90;;;;;;6119004;23;20184;-86
2023/01/10 02:13:40;;;;;;;11.20;6.90;;;10.10;99.90;;;;;;6106445;23;20219;-87
2023/01/10 02:16:14;;;;;;;11.07;7.00;;;10.10;99.90;;;;;;6142432;23;20160;-88
2023/01/10 02:18:43;;;;;;;8.20;6.83;;;10.10;99.90;;;;;;6137863;23;20165;-85
2023/01/10 02:21:24;;;;;;;8.60;7.27;;;10.10;99.90;;;;;;6114572;23;20461;-86
2023/01/10 02:24:39;;;;;;;9.53;7.33;;;10.10;99.90;;;;;;6144109;23;20178;-82
2023/01/10 02:27:26;;;;;;;9.70;7.53;;;10.10;99.90;;;;;;6116247;23;20176;-83
2023/01/10 02:30:35;;;;;;;13.10;7.77;;;10.10;99.90;;;;;;6139642;23;20161;-82
2023/01/10 02:33:38;;;;;;;8.00;6.87;;;10.10;99.90;;;;;;5994760;23;20152;-89
2023/01/10 02:37:02;;;;;;;11.17;7.50;;;10.10;99.90;;;;;;6138425;23;20168;-87
2023/01/10 02:39:46;;;;;;;11.47;7.00;;;10.10;99.90;;;;;;6118519;23;20161;-87
2023/01/10 02:42:33;;;;;;;10.43;7.23;;;10.10;99.90;;;;;;6117699;23;20208;-86
2023/01/10 02:45:51;;;;;;;9.10;6.73;;;10.10;99.90;;;;;;6117678;23;20164;-88
2023/01/10 02:48:21;;;;;;;9.87;7.33;;;10.10;99.90;;;;;;6022767;23;20247;-89
2023/01/10 02:51:16;;;;;;;11.53;7.77;;;10.10;99.90;;;;;;5976566;23;20999;-87
2023/01/10 02:54:06;;;;;;;9.97;7.37;;;10.20;99.90;;;;;;6091590;23;20161;-82
2023/01/10 02:57:05;;;;;;;13.30;7.30;;;10.20;99.90;;;;;;6118572;23;20157;-88
2023/01/10 02:59:59;;;;;;;12.50;7.40;;;10.20;99.90;;;;;;6120027;23;20587;-84
2023/01/10 03:03:19;;;;;;;9.53;7.20;;;10.20;99.90;;;;;;6118879;23;20193;-84
2023/01/10 03:06:16;;;;;;;11.00;6.93;;;10.20;99.90;;;;;;6141155;23;20243;-87
2023/01/10 03:09:03;;;;;;;10.40;7.00;;;10.30;99.90;;;;;;6115242;23;20157;-85
2023/01/10 03:11:42;;;;;;;11.50;7.00;;;10.30;99.90;;;;;;6116789;23;20153;-85
2023/01/10 03:14:24;;;;;;;8.63;6.47;;;10.30;99.90;;;;;;6095814;23;20164;-88
2023/01/10 03:17:09;;;;;;;9.23;7.10;;;10.30;99.90;;;;;;6117984;23;20160;-86
2023/01/10 03:19:48;;;;;;;12.90;7.80;;;10.20;99.90;;;;;;6118848;23;20172;-87
2023/01/10 03:22:21;;;;;;;11.73;7.13;;;10.20;99.90;;;;;;6117494;23;20196;-85
2023/01/10 03:24:52;;;;;;;12.70;7.07;;;10.20;99.90;;;;;;6095230;23;20488;-85
2023/01/10 03:27:38;;;;;;;9.80;7.40;;;10.20;99.90;;;;;;6120154;23;20225;-86
2023/01/10 03:30:32;;;;;;;11.77;7.40;;;10.20;99.90;;;;;;6118036;23;20157;-84
2023/01/10 03:33:00;;;;;;;10.13;6.47;;;10.10;99.90;;;;;;6119274;23;20169;-85
2023/01/10 03:36:09;;;;;;;12.07;6.80;;;10.10;99.90;;;;;;6116564;23;20418;-82
2023/01/10 03:39:00;;;;;;;9.07;6.50;;;10.10;99.90;;;;;;6119065;23;20165;-86
2023/01/10 03:41:52;;;;;;;9.90;6.90;;;10.10;99.90;;;;;;6118020;23;20193;-86
2023/01/10 03:44:45;;;;;;;11.43;7.53;;;10.10;99.90;;;;;;6117632;23;20145;-86
2023/01/10 03:47:19;;;;;;;8.43;7.10;;;10.10;99.90;;;;;;6116819;23;20227;-86
2023/01/10 03:49:55;;;;;;;9.13;7.30;;;10.10;99.90;;;;;;6119486;23;20176;-86
2023/01/10 03:52:25;;;;;;;13.80;7.47;;;10.10;99.90;;;;;;6119756;23;20169;-86
2023/01/10 03:54:53;;;;;;;14.00;7.60;;;10.00;99.90;;;;;;6118487;23;20168;-84
2023/01/10 03:57:25;;;;;;;12.83;7.90;;;10.00;99.90;;;;;;6115372;23;20168;-86
2023/01/10 03:59:57;;;;;;;11.77;7.83;;;10.00;99.90;;;;;;6116122;23;20575;-85
2023/01/10 04:02:30;;;;;;;9.87;7.33;;;10.00;99.90;;;;;;6116077;23;20254;-85
2023/01/10 04:04:58;;;;;;;10.07;6.93;;;10.00;99.90;;;;;;6112282;23;20189;-87
2023/01/10 04:07:26;;;;;;;9.90;6.97;;;10.00;99.90;;;;;;6116448;23;20161;-87
2023/01/10 04:09:53;;;;;;;9.90;7.20;;;10.00;99.90;;;;;;6142526;23;20173;-87
2023/01/10 04:12:20;;;;;;;10.97;6.80;;;10.00;99.90;;;;;;6116369;23;20157;-88
2023/01/10 04:14:48;;;;;;;11.93;7.67;;;10.00;99.90;;;;;;6117207;23;20157;-86
2023/01/10 04:17:18;;;;;;;14.00;7.73;;;10.00;99.90;;;;;;6115818;23;20189;-86
2023/01/10 04:19:47;;;;;;;10.27;7.27;;;10.00;99.90;;;;;;6091416;23;20249;-87
2023/01/10 04:22:13;;;;;;;11.63;7.83;;;10.00;99.90;;;;;;6112548;23;20184;-94
2023/01/10 04:24:43;;;;;;;8.83;7.23;;;10.00;99.90;;;;;;6117401;23;20159;-82
2023/01/10 04:27:10;;;;;;;10.67;7.13;;;10.00;99.90;;;;;;6161248;23;20603;-88
2023/01/10 04:29:37;;;;;;;7.90;7.07;;;10.00;99.90;;;;;;6108536;23;20253;-85
2023/01/10 04:32:19;;;;;;;10.87;7.33;;;10.00;99.90;;;;;;6115745;23;20181;-87
2023/01/10 04:34:47;;;;;;;9.83;7.00;;;10.00;99.90;;;;;;6113473;23;20244;-88
2023/01/10 04:37:14;;;;;;;9.83;6.50;;;10.00;99.90;;;;;;6116124;23;20172;-88
2023/01/10 04:39:44;;;;;;;10.17;6.80;;;10.00;99.90;;;;;;6114780;23;20181;-83
2023/01/10 04:42:16;;;;;;;10.50;6.67;;;10.00;99.90;;;;;;6140471;23;20189;-90
2023/01/10 04:44:44;;;;;;;11.10;7.40;;;10.00;99.90;;;;;;6117599;23;20145;-87
2023/01/10 04:47:14;;;;;;;14.20;7.70;;;10.00;99.90;;;;;;6138274;23;20168;-86
2023/01/10 04:49:41;;;;;;;13.83;7.77;;;10.00;99.90;;;;;;6138430;23;20161;-85
2023/01/10 04:52:09;;;;;;;12.20;7.30;;;10.00;99.90;;;;;;6114282;23;20584;-87
2023/01/10 04:54:36;;;;;;;9.70;7.37;;;9.90;99.90;;;;;;6112815;23;20165;-86
2023/01/10 04:57:05;;;;;;;8.60;6.70;;;9.90;99.90;;;;;;6113955;23;20172;-87
2023/01/10 04:59:32;;;;;;;11.27;6.20;;;9.90;99.90;;;;;;6109606;23;20171;-88
2023/01/10 05:02:00;;;;;;;11.17;7.50;;;9.90;99.90;;;;;;6099985;23;20191;-87
2023/01/10 05:04:26;;;;;;;11.10;6.83;;;9.90;99.90;;;;;;6100319;23;20260;-87
2023/01/10 05:06:53;;;;;;;15.50;7.57;;;10.00;99.90;;;;;;6100692;23;20161;-90
2023/01/10 05:09:20;;;;;;;12.13;7.10;;;9.90;99.90;;;;;;6123960;23;20157;-89
2023/01/10 05:11:47;;;;;;;8.87;6.80;;;9.90;99.90;;;;;;6101292;23;20470;-84
2023/01/10 05:14:18;;;;;;;10.47;6.60;;;9.90;99.90;;;;;;6115782;23;20164;-88
2023/01/10 05:16:46;;;;;;;10.70;6.60;;;10.00;99.90;;;;;;6114132;23;20157;-85
2023/01/10 05:19:14;;;;;;;9.00;6.67;;;10.00;99.90;;;;;;6139508;23;20187;-90
2023/01/10 05:21:42;;;;;;;9.40;6.43;;;10.00;99.90;;;;;;6117510;23;20200;-89
2023/01/10 05:24:11;;;;;;;9.03;6.97;;;10.00;99.90;;;;;;6115257;23;20153;-87
2023/01/10 05:26:38;;;;;;;9.37;6.63;;;10.00;99.90;;;;;;6116292;23;20160;-92
2023/01/10 05:29:04;;;;;;;10.27;6.83;;;10.00;99.90;;;;;;6140626;23;20153;-87
2023/01/10 05:31:33;;;;;;;11.83;6.80;;;10.00;99.90;;;;;;6119265;23;20161;-84
2023/01/10 05:34:01;;;;;;;9.47;7.13;;;10.00;99.90;;;;;;6167613;23;20204;-89
2023/01/10 05:36:28;;;;;;;9.67;6.83;;;10.00;99.90;;;;;;6117580;23;20156;-83
2023/01/10 05:38:56;;;;;;;11.43;6.70;;;10.00;99.90;;;;;;6114557;23;20152;-84
2023/01/10 05:41:23;;;;;;;12.33;7.00;;;10.10;99.90;;;;;;6111982;23;20200;-90
2023/01/10 05:43:53;;;;;;;9.67;6.87;;;10.10;99.90;;;;;;6142508;23;20165;-87
2023/01/10 05:46:19;;;;;;;9.30;7.03;;;10.10;99.90;;;;;;6142173;23;20161;-89
2023/01/10 05:48:46;;;;;;;8.30;6.30;;;10.20;99.90;;;;;;6116043;23;20176;-84
2023/01/10 05:51:14;;;;;;;11.00;6.97;;;10.20;99.90;;;;;;6089612;23;20184;-88
2023/01/10 05:53:42;;;;;;;13.07;6.73;;;10.30;99.90;;;;;;6116779;23;20209;-90
2023/01/10 05:56:09;;;;;;;11.83;6.93;;;10.30;99.90;;;;;;6113652;23;20161;-87
2023/01/10 05:58:37;;;;;;;10.03;6.27;;;10.30;99.90;;;;;;6114835;23;20157;-89
2023/01/10 06:01:08;;;;;;;9.13;6.27;;;10.30;99.90;;;;;;6138297;23;20614;-88
2023/01/10 06:03:36;;;;;;;17.23;7.03;;;10.40;99.90;;;;;;6116598;23;20235;-89
2023/01/10 06:06:03;;;;;;;10.50;6.87;;;10.40;99.90;;;;;;6118383;23;20176;-90
2023/01/10 06:08:39;;;;;;;10.77;7.07;;;10.50;99.90;;;;;;6161759;23;20183;-85
2023/01/10 06:11:08;;;;;;;10.83;7.40;;;10.50;99.90;;;;;;6093454;23;20150;-83
2023/01/10 06:13:35;;;;;;;9.33;6.30;;;10.60;99.90;;;;;;6094769;23;20165;-88
2023/01/10 06:16:02;;;;;;;9.53;6.20;;;10.60;99.90;;;;;;6138178;23;20167;-89
2023/01/10 06:18:29;;;;;;;11.63;6.70;;;10.70;99.90;;;;;;6110929;23;20272;-85
2023/01/10 06:20:57;;;;;;;11.43;6.50;;;10.70;99.90;;;;;;6116324;23;20176;-85
2023/01/10 06:23:23;;;;;;;13.77;7.07;;;10.80;99.90;;;;;;6110496;23;20700;-86
2023/01/10 06:25:57;;;;;;;8.83;6.27;;;10.90;99.90;;;;;;6161110;23;20219;-89
2023/01/10 06:28:23;;;;;;;8.63;6.87;;;10.90;99.90;;;;;;6114016;23;20206;-90
2023/01/10 06:30:50;;;;;;;8.83;6.50;;;11.00;99.90;;;;;;6111249;23;20248;-88
2023/01/10 06:33:17;;;;;;;10.90;6.20;;;11.00;99.90;;;;;;6118908;23;20157;-83
2023/01/10 06:35:46;;;;;;;9.53;6.57;;;11.10;99.90;;;;;;6117949;23;20212;-86
2023/01/10 06:38:15;;;;;;;7.43;6.33;;;11.10;99.90;;;;;;6092376;23;20536;-88
2023/01/10 06:40:46;;;;;;;8.73;6.70;;;11.20;99.90;;;;;;6116300;23;20186;-85
2023/01/10 06:43:13;;;;;;;6.73;6.03;;;11.20;99.90;;;;;;6116460;23;20184;-85
2023/01/10 06:45:44;;;;;;;10.43;6.70;;;11.30;99.90;;;;;;6088187;23;20168;-89
2023/01/10 06:48:14;;;;;;;8.60;6.47;;;11.30;99.90;;;;;;6116757;23;20172;-88
2023/01/10 06:50:42;;;;;;;12.90;7.67;;;11.30;99.90;;;;;;6117007;23;20157;-91
2023/01/10 06:53:14;;;;;;;10.37;6.53;;;11.40;99.90;;;;;;6120622;23;20172;-88
2023/01/10 06:55:44;;;;;;;8.60;6.53;;;11.40;99.90;;;;;;6120698;23;20611;-92
2023/01/10 06:58:17;;;;;;;7.70;6.13;;;11.40;99.90;;;;;;6116409;23;20228;-89
2023/01/10 07:00:44;;;;;;;9.70;6.60;;;11.50;99.90;;;;;;6117120;23;20157;-85
2023/01/10 07:03:11;;;;;;;10.80;6.70;;;11.50;99.90;;;;;;6118242;23;20206;-90
2023/01/10 07:05:38;;;;;;;9.40;6.23;;;11.50;99.90;;;;;;6118262;23;20184;-89
2023/01/10 07:08:06;;;;;;;8.43;6.30;;;11.60;99.90;;;;;;6168351;23;20176;-92
2023/01/10 07:10:32;;;;;;;7.50;5.90;;;11.70;99.90;;;;;;6121287;23;20160;-89
2023/01/10 07:12:58;;;;;;;8.40;6.23;;;11.80;99.90;;;;;;6113461;23;20224;-89
2023/01/10 07:15:28;;;;;;;10.53;6.53;;;11.80;99.90;;;;;;6121458;23;20528;-88
2023/01/10 07:17:59;;;;;;;9.30;6.13;;;11.80;99.90;;;;;;6120838;23;20164;-85
2023/01/10 07:20:27;;;;;;;8.93;6.17;;;11.80;99.90;;;;;;6121371;23;20165;-90
2023/01/10 07:23:00;;;;;;;8.70;5.93;;;11.90;99.90;;;;;;6118523;23;20189;-86
2023/01/10 07:25:29;;;;;;;10.37;6.17;;;12.10;99.90;;;;;;6138684;23;20153;-88
2023/01/10 07:27:55;;;;;;;11.87;6.10;;;12.30;99.90;;;;;;6118803;23;20188;-84
2023/01/10 07:30:24;;;;;;;9.53;5.97;;;12.30;99.90;;;;;;6112118;23;20157;-88
2023/01/10 07:32:55;;;;;;;8.30;6.20;;;12.30;99.90;;;;;;6117150;23;20191;-84
2023/01/10 07:35:23;;;;;;;8.67;5.83;;;12.30;99.90;;;;;;6110249;23;20637;-85
2023/01/10 07:37:49;;;;;;;10.67;6.47;;;12.20;99.90;;;;;;6135999;23;20157;-85
2023/01/10 07:40:17;;;;;;;10.80;5.27;;;12.30;99.90;;;;;;6099095;23;20327;-81
2023/01/10 07:42:43;;;;;;;10.33;6.40;;;12.30;99.90;;;;;;6123862;23;20180;-84
2023/01/10 07:45:15;;;;;;;10.27;5.70;;;12.50;99.90;;;;;;6109211;23;20164;-85
2023/01/10 07:47:42;;;;;;;11.37;6.20;;;12.70;99.90;;;;;;6109518;23;20259;-90
2023/01/10 07:50:19;;;;;;;11.17;6.47;;;12.60;99.90;;;;;;6111283;23;20164;-90
2023/01/10 07:52:55;;;;;;;15.77;6.10;;;12.50;99.90;;;;;;6113449;23;20662;-90
2023/01/10 07:55:29;;;;;;;7.83;6.07;;;12.50;99.90;;;;;;6118478;23;20216;-85
2023/01/10 07:58:09;;;;;;;9.93;6.43;;;12.50;99.90;;;;;;6137041;23;20161;-86
2023/01/10 08:00:40;;;;;;;8.00;6.23;;;12.50;99.90;;;;;;6113395;23;20154;-87
2023/01/10 08:03:10;;;;;;;11.70;6.47;;;12.50;99.90;;;;;;6108587;23;20173;-86
2023/01/10 08:05:37;;;;;;;6.60;5.57;;;12.60;99.90;;;;;;6115109;23;20149;-84
2023/01/10 08:08:18;;;;;;;8.10;5.77;;;12.60;99.90;;;;;;6106485;23;20165;-84
2023/01/10 08:10:45;;;;;;;8.60;6.00;;;12.60;99.90;;;;;;6109136;23;20161;-85
2023/01/10 08:13:14;;;;;;;9.57;6.10;;;12.50;99.90;;;;;;6112775;23;20208;-85
2023/01/10 08:15:40;;;;;;;9.10;5.83;;;12.40;99.90;;;;;;6103321;23;20192;-85
2023/01/10 08:18:10;;;;;;;8.83;6.30;;;12.50;99.90;;;;;;6106999;23;20167;-80
2023/01/10 08:20:41;;;;;;;12.40;6.10;;;12.40;99.90;;;;;;6113875;23;20149;-88
2023/01/10 08:23:09;;;;;;;8.27;6.10;;;12.40;99.90;;;;;;6111752;23;20192;-89
2023/01/10 08:25:36;;;;;;;8.37;6.23;;;12.50;99.90;;;;;;6112674;23;20224;-90
2023/01/10 08:28:04;;;;;;;9.93;6.57;;;12.50;99.90;;;;;;6116210;23;20187;-89
2023/01/10 08:30:31;;;;;;;11.53;6.17;;;12.50;99.90;;;;;;6113438;23;20529;-89
2023/01/10 08:33:11;;;;;;;9.03;5.83;;;12.50;99.90;;;;;;6115198;23;20160;-90
2023/01/10 08:35:42;;;;;;;8.20;6.00;;;12.70;99.90;;;;;;6134270;23;20160;-91
2023/01/10 08:38:11;;;;;;;8.80;5.50;;;12.90;99.90;;;;;;6103455;23;20649;-88
2023/01/10 08:40:38;;;;;;;10.93;6.07;;;12.90;99.90;;;;;;6102335;23;20209;-91
2023/01/10 08:43:16;;;;;;;7.93;5.87;;;12.90;99.90;;;;;;6080208;23;20572;-87
2023/01/10 08:45:43;;;;;;;9.30;5.63;;;12.80;99.90;;;;;;6105891;23;20159;-90
2023/01/10 08:48:18;;;;;;;10.60;6.07;;;12.80;99.90;;;;;;6144264;23;20165;-90
2023/01/10 08:50:48;;;;;;;7.40;6.00;;;12.80;99.90;;;;;;6109777;23;20156;-83
2023/01/10 08:53:18;;;;;;;10.40;5.60;;;12.80;99.90;;;;;;6130087;23;20184;-82
2023/01/10 08:55:44;;;;;;;7.63;5.63;;;12.70;99.90;;;;;;6111611;23;20175;-84
2023/01/10 08:58:12;;;;;;;8.63;5.83;;;12.80;99.90;;;;;;6112833;23;20249;-85
2023/01/10 09:00:44;;;;;;;8.17;5.77;;;12.70;99.90;;;;;;6111888;23;20160;-84
2023/01/10 09:03:16;;;;;;;8.70;5.83;;;12.90;99.90;;;;;;6137722;23;20168;-84
2023/01/10 09:05:50;;;;;;;8.43;5.70;;;12.90;99.90;;;;;;6109912;23;20169;-84
2023/01/10 09:08:23;;;;;;;8.53;6.30;;;12.90;99.90;;;;;;6139224;23;20208;-86
2023/01/10 09:10:59;;;;;;;8.37;5.73;;;12.90;99.90;;;;;;6139711;23;20160;-85
2023/01/10 09:13:32;;;;;;;9.33;6.37;;;13.00;99.90;;;;;;6140194;23;20219;-84
2023/01/10 09:16:01;;;;;;;9.03;6.07;;;13.00;99.90;;;;;;6114354;23;20180;-84
2023/01/10 09:18:29;;;;;;;9.00;5.50;;;13.10;99.90;;;;;;6088731;23;20188;-83
2023/01/10 09:20:58;;;;;;;9.90;5.87;;;13.20;99.90;;;;;;6110223;23;20160;-84
2023/01/10 09:23:26;;;;;;;7.27;5.20;;;13.30;99.90;;;;;;6100845;23;20185;-86
2023/01/10 09:25:57;;;;;;;7.53;5.80;;;13.20;99.90;;;;;;6115155;23;20659;-87
2023/01/10 09:28:25;;;;;;;8.03;5.60;;;13.20;99.90;;;;;;6116590;23;20222;-85
2023/01/10 09:30:51;;;;;;;6.67;5.43;;;13.20;99.90;;;;;;6113159;23;20168;-84
2023/01/10 09:33:21;;;;;;;6.13;5.53;;;13.30;99.90;;;;;;6141290;23;20161;-86
2023/01/10 09:35:50;;;;;;;7.07;5.53;;;13.40;99.90;;;;;;6138783;23;20153;-85
2023/01/10 09:38:21;;;;;;;7.30;5.43;;;13.40;99.90;;;;;;6108282;23;20195;-87
2023/01/10 09:41:06;;;;;;;6.30;5.03;;;13.50;99.90;;;;;;6114382;23;20180;-88
2023/01/10 09:44:18;;;;;;;7.13;5.33;;;13.60;99.90;;;;;;6137785;23;20184;-85
2023/01/10 09:47:08;;;;;;;10.80;5.23;;;13.60;99.90;;;;;;6162218;23;20272;-84
2023/01/10 09:50:02;;;;;;;7.53;5.57;;;13.50;99.90;;;;;;6108992;23;20164;-83
2023/01/10 09:52:43;;;;;;;10.80;5.13;;;13.50;99.90;;;;;;6138054;23;20252;-81
2023/01/10 09:55:34;;;;;;;6.50;4.60;;;13.50;99.90;;;;;;6112862;23;20163;-85
2023/01/10 09:58:14;;;;;;;7.93;5.53;;;13.50;99.90;;;;;;6135895;23;20165;-84
2023/01/10 10:00:59;;;;;;;7.97;6.00;;;13.50;99.90;;;;;;6109565;23;20153;-83
2023/01/10 10:04:12;;;;;;;8.90;5.80;;;13.60;99.90;;;;;;6129185;23;20188;-89
2023/01/10 10:06:41;;;;;;;8.37;5.40;;;13.60;99.90;;;;;;6116273;23;20179;-91
2023/01/10 10:09:16;;;;;;;8.13;5.60;;;13.80;99.90;;;;;;6107551;23;20192;-88
2023/01/10 10:12:25;;;;;;;7.77;5.30;;;13.80;99.90;;;;;;6088349;23;20172;-89
2023/01/10 10:15:32;;;;;;;6.57;5.30;;;13.90;99.90;;;;;;6110256;23;20149;-85
2023/01/10 10:18:16;;;;;;;5.87;4.80;;;13.90;99.90;;;;;;6107319;23;20153;-90
2023/01/10 10:21:23;;;;;;;12.47;6.07;;;14.00;99.90;;;;;;6139026;23;20165;-86
2023/01/10 10:23:59;;;;;;;7.93;5.10;;;14.00;99.90;;;;;;6134083;23;20248;-91
2023/01/10 10:27:18;;;;;;;6.10;5.07;;;14.00;99.90;;;;;;6140818;23;20160;-87
2023/01/10 10:30:07;;;;;;;5.57;5.00;;;14.00;99.90;;;;;;6136434;23;20163;-86
2023/01/10 10:32:56;;;;;;;6.57;5.23;;;14.00;99.90;;;;;;6118709;23;20152;-87
2023/01/10 10:35:36;;;;;;;6.77;5.00;;;14.10;99.90;;;;;;6111526;23;20184;-90
2023/01/10 10:38:28;;;;;;;6.27;5.17;;;14.10;99.90;;;;;;6118116;23;20211;-87
2023/01/10 10:40:58;;;;;;;6.77;4.77;;;14.20;99.90;;;;;;6116887;23;20169;-85
2023/01/10 10:43:37;;;;;;;8.77;5.13;;;14.20;99.90;;;;;;6115297;23;20189;-88
2023/01/10 10:46:13;;;;;;;7.43;4.67;;;14.30;99.90;;;;;;6106134;23;20188;-88
2023/01/10 10:49:05;;;;;;;7.83;5.40;;;14.30;99.90;;;;;;6109880;23;20632;-84
2023/01/10 10:51:50;;;;;;;5.80;5.00;;;14.40;99.90;;;;;;6089473;23;20173;-89
2023/01/10 10:54:18;;;;;;;5.43;4.17;;;14.30;99.90;;;;;;6110217;23;20157;-89
2023/01/10 10:56:48;;;;;;;8.10;4.53;;;14.30;99.90;;;;;;6112438;23;20161;-88
2023/01/10 10:59:21;;;;;;;6.57;4.07;;;14.40;99.90;;;;;;6138073;23;20165;-90
2023/01/10 11:01:50;;;;;;;5.37;4.47;;;14.50;99.90;;;;;;6138309;23;20185;-90
2023/01/10 11:04:22;;;;;;;8.27;5.10;;;14.50;99.90;;;;;;6110483;23;20179;-89
2023/01/10 11:06:51;;;;;;;6.33;4.80;;;14.60;99.90;;;;;;6106524;23;20172;-87
2023/01/10 11:09:39;;;;;;;6.40;4.73;;;14.70;99.90;;;;;;6114527;23;20153;-88
2023/01/10 11:12:20;;;;;;;9.23;5.13;;;14.90;99.90;;;;;;6110693;23;20164;-89
2023/01/10 11:14:52;;;;;;;5.47;4.70;;;14.90;99.90;;;;;;6116375;23;20188;-86
2023/01/10 11:17:33;;;;;;;6.20;5.00;;;14.90;99.90;;;;;;6090491;23;20157;-87
2023/01/10 11:20:17;;;;;;;6.67;4.47;;;15.10;99.90;;;;;;6111309;23;20183;-87
2023/01/10 11:22:54;;;;;;;6.40;4.47;;;15.30;99.90;;;;;;6111518;23;20176;-86
2023/01/10 11:25:24;;;;;;;7.00;4.23;;;15.40;99.90;;;;;;6132908;23;20160;-84
2023/01/10 11:27:59;;;;;;;5.20;4.40;;;15.50;99.90;;;;;;6085923;23;20160;-87
2023/01/10 11:30:35;;;;;;;6.27;4.50;;;15.50;99.90;;;;;;6110271;23;20160;-90
2023/01/10 11:33:07;;;;;;;5.30;4.43;;;15.50;99.90;;;;;;6110808;23;20156;-87
2023/01/10 11:35:40;;;;;;;7.57;5.03;;;15.50;99.90;;;;;;6109227;23;20157;-87
2023/01/10 11:38:28;;;;;;;6.90;4.70;;;15.40;99.90;;;;;;6135283;23;20496;-87
2023/01/10 11:41:24;;;;;;;7.97;4.73;;;15.40;99.90;;;;;;6114830;23;20173;-85
2023/01/10 11:43:51;;;;;;;7.10;5.30;;;15.30;99.90;;;;;;6114376;23;20228;-85
2023/01/10 11:46:25;;;;;;;6.63;4.70;;;15.30;99.90;;;;;;6114684;23;20846;-90
2023/01/10 11:49:00;;;;;;;6.33;4.90;;;15.40;99.90;;;;;;6111814;23;20172;-85
2023/01/10 11:52:01;;;;;;;7.03;4.90;;;15.50;99.90;;;;;;6106464;23;20168;-88
2023/01/10 11:54:32;;;;;;;9.20;5.00;;;15.60;99.90;;;;;;6126343;23;20165;-89
2023/01/10 11:57:32;;;;;;;7.03;5.00;;;15.70;99.90;;;;;;6111978;23;20177;-89
2023/01/10 12:00:11;;;;;;;7.50;5.30;;;15.70;99.90;;;;;;6112698;23;20165;-88
2023/01/10 12:02:45;;;;;;;6.00;5.00;;;15.80;99.90;;;;;;6143100;23;20188;-89
2023/01/10 12:05:21;;;;;;;8.77;5.37;;;15.70;99.90;;;;;;6138094;23;20166;-85
2023/01/10 12:08:09;;;;;;;8.13;4.60;;;15.60;99.90;;;;;;6118690;23;20168;-85
2023/01/10 12:10:37;;;;;;;7.80;5.20;;;15.60;99.90;;;;;;6140948;23;20161;-80
2023/01/10 12:13:17;;;;;;;7.23;4.83;;;15.60;99.90;;;;;;6140488;23;20176;-81
2023/01/10 12:15:45;;;;;;;6.60;5.23;;;15.50;99.90;;;;;;6114908;23;20177;-85
2023/01/10 12:18:18;;;;;;;7.93;5.90;;;15.40;99.90;;;;;;6117386;23;20179;-81
2023/01/10 12:20:53;;;;;;;7.40;5.40;;;15.30;99.90;;;;;;6141691;23;20149;-84
2023/01/10 12:23:27;;;;;;;9.93;5.70;;;15.10;99.90;;;;;;6115809;23;20180;-82
2023/01/10 12:25:58;;;;;;;8.03;6.00;;;15.00;99.90;;;;;;6114945;23;20698;-82
2023/01/10 12:28:29;;;;;;;10.57;6.07;;;15.00;99.90;;;;;;6116713;23;20637;-85
2023/01/10 12:31:04;;;;;;;9.43;5.57;;;14.90;99.90;;;;;;6140289;23;20175;-85
2023/01/10 12:33:39;;;;;;;6.60;5.30;;;14.70;99.90;;;;;;6114454;23;20191;-84
2023/01/10 12:36:36;;;;;;;11.20;6.63;;;14.70;99.90;;;;;;6139345;23;20171;-84
2023/01/10 12:39:50;;;;;;;10.83;5.70;;;14.50;99.90;;;;;;6114884;23;20161;-87
2023/01/10 12:46:29;;;;;;;10.97;6.10;;;14.50;99.90;;;;;;6088643;23;20169;-86
2023/01/10 12:49:27;;;;;;;11.17;6.37;;;14.40;99.90;;;;;;6138160;23;20199;-86
2023/01/10 12:52:13;;;;;;;7.73;5.87;;;14.30;99.90;;;;;;6141664;23;20149;-84
2023/01/10 12:54:44;;;;;;;10.20;5.80;;;14.20;99.90;;;;;;6115929;23;20171;-85
2023/01/10 12:57:35;;;;;;;8.13;6.27;;;14.20;99.90;;;;;;6117873;23;20157;-88
2023/01/10 13:00:28;;;;;;;7.47;5.87;;;14.10;99.90;;;;;;6143096;23;20185;-89
2023/01/10 13:03:06;;;;;;;11.43;5.77;;;14.00;99.90;;;;;;6115257;23;20244;-87
2023/01/10 13:05:44;;;;;;;6.53;5.80;;;14.00;99.90;;;;;;6143395;23;20161;-87
2023/01/10 13:08:18;;;;;;;11.80;6.37;;;13.90;99.90;;;;;;6145805;23;20169;-87
2023/01/10 13:10:54;;;;;;;8.10;5.83;;;13.80;99.90;;;;;;6140145;23;20161;-87
2023/01/10 13:13:42;;;;;;;7.67;5.90;;;13.70;99.90;;;;;;6116905;23;20161;-88
2023/01/10 13:16:21;;;;;;;9.97;6.30;;;13.80;99.90;;;;;;6107006;23;20192;-88
2023/01/10 13:19:28;;;;;;;8.67;5.97;;;13.80;99.90;;;;;;6109576;23;20184;-90
2023/01/10 13:22:26;;;;;;;34.93;7.20;;;13.70;99.90;;;;;;6115178;23;20329;-85
2023/01/10 13:25:01;;;;;;;22.70;6.53;;;13.70;99.90;;;;;;6116171;23;20169;-85
2023/01/10 13:27:33;;;;;;;9.03;5.90;;;13.70;99.90;;;;;;6118018;23;20152;-85
2023/01/10 13:30:03;;;;;;;7.23;5.83;;;13.70;99.90;;;;;;6113122;23;20165;-87
2023/01/10 13:33:19;;;;;;;8.00;5.97;;;13.70;99.90;;;;;;6114528;23;20235;-86